createdAt,value
2018-09-21T00:02:30.315Z,0.00
2018-09-21T00:05:30.252Z,0.00
2018-09-21T00:08:30.199Z,0.00
2018-09-21T00:11:30.236Z,0.00
2018-09-21T00:14:30.136Z,0.00
2018-09-21T00:17:31.745Z,0.00
2018-09-21T00:20:30.076Z,0.00
2018-09-21T00:23:30.031Z,0.00
2018-09-21T00:26:29.994Z,0.00
2018-09-21T00:29:30.043Z,0.00
2018-09-21T00:32:29.919Z,0.00
2018-09-21T00:35:29.913Z,0.00
2018-09-21T00:38:29.874Z,0.00
2018-09-21T00:41:29.826Z,0.00
2018-09-21T00:44:29.782Z,0.00
2018-09-21T00:47:29.770Z,0.00
2018-09-21T00:50:29.732Z,0.00
2018-09-21T00:53:29.708Z,0.00
2018-09-21T00:56:29.642Z,0.00
2018-09-21T00:59:31.206Z,0.00
2018-09-21T01:02:29.563Z,0.00
2018-09-21T01:05:29.580Z,0.00
2018-09-21T01:08:29.504Z,0.00
2018-09-21T01:11:31.201Z,0.00
2018-09-21T01:14:29.452Z,0.00
2018-09-21T01:17:31.220Z,0.00
2018-09-21T01:20:29.389Z,0.00
2018-09-21T01:23:31.207Z,0.00
2018-09-21T01:26:29.352Z,0.00
2018-09-21T01:29:29.306Z,0.00
2018-09-21T01:32:29.289Z,0.00
2018-09-21T01:35:29.216Z,0.00
2018-09-21T01:38:29.235Z,0.00
2018-09-21T01:41:29.159Z,0.00
2018-09-21T01:44:29.113Z,0.00
2018-09-21T01:47:29.127Z,0.00
2018-09-21T01:50:29.086Z,0.00
2018-09-21T01:53:29.058Z,0.00
2018-09-21T01:56:28.982Z,0.00
2018-09-21T01:59:29.729Z,0.00
2018-09-21T02:02:28.952Z,0.00
2018-09-21T02:05:29.690Z,0.00
2018-09-21T02:08:30.706Z,0.00
2018-09-21T02:11:29.805Z,0.00
2018-09-21T02:14:28.766Z,0.00
2018-09-21T02:17:30.707Z,0.00
2018-09-21T02:20:28.709Z,0.00
2018-09-21T02:23:30.258Z,0.00
2018-09-21T02:26:30.141Z,0.00
2018-09-21T02:29:29.602Z,0.00
2018-09-21T02:32:28.565Z,0.00
2018-09-21T02:35:28.552Z,0.00
2018-09-21T02:38:28.494Z,0.00
2018-09-21T02:41:28.566Z,0.00
2018-09-21T02:44:28.444Z,0.00
2018-09-21T02:47:28.409Z,0.00
2018-09-21T02:50:28.373Z,0.00
2018-09-21T02:53:28.382Z,0.00
2018-09-21T02:56:28.295Z,0.00
2018-09-21T02:59:28.320Z,0.00
2018-09-21T03:02:28.230Z,0.00
2018-09-21T03:05:28.208Z,0.00
2018-09-21T03:08:28.161Z,0.00
2018-09-21T03:11:28.201Z,0.00
2018-09-21T03:14:28.088Z,0.00
2018-09-21T03:17:28.694Z,0.00
2018-09-21T03:20:29.020Z,0.00
2018-09-21T03:23:28.001Z,0.00
2018-09-21T03:26:27.943Z,0.00
2018-09-21T03:29:27.930Z,0.00
2018-09-21T03:32:27.925Z,0.00
2018-09-21T03:35:27.941Z,0.00
2018-09-21T03:38:27.859Z,0.00
2018-09-21T03:41:27.831Z,0.00
2018-09-21T03:44:27.738Z,0.00
2018-09-21T03:47:27.732Z,0.00
2018-09-21T03:50:27.753Z,0.00
2018-09-21T03:53:27.688Z,0.00
2018-09-21T03:56:27.623Z,0.00
2018-09-21T03:59:27.603Z,0.00
2018-09-21T04:02:27.557Z,0.00
2018-09-21T04:05:27.542Z,0.00
2018-09-21T04:08:27.486Z,0.00
2018-09-21T04:11:27.453Z,0.00
2018-09-21T04:14:27.450Z,0.00
2018-09-21T04:17:27.377Z,0.00
2018-09-21T04:20:27.330Z,0.00
2018-09-21T04:23:27.347Z,0.00
2018-09-21T04:26:27.287Z,0.00
2018-09-21T04:29:27.286Z,0.00
2018-09-21T04:32:27.245Z,0.00
2018-09-21T04:35:28.736Z,0.00
2018-09-21T04:38:27.162Z,0.00
2018-09-21T04:41:27.164Z,0.00
2018-09-21T04:44:27.089Z,0.00
2018-09-21T04:47:27.066Z,0.00
2018-09-21T04:50:27.009Z,0.00
2018-09-21T04:53:26.999Z,0.00
2018-09-21T04:56:26.969Z,0.00
2018-09-21T04:59:26.961Z,0.00
2018-09-21T05:02:26.916Z,0.00
2018-09-21T05:05:26.898Z,0.00
2018-09-21T05:08:26.807Z,0.00
2018-09-21T05:11:26.794Z,0.00
2018-09-21T05:14:26.758Z,5.62
2018-09-21T05:17:26.759Z,5.62
2018-09-21T05:20:27.682Z,5.62
2018-09-21T05:23:28.199Z,11.25
2018-09-21T05:26:26.628Z,16.88
2018-09-21T05:29:26.580Z,22.50
2018-09-21T05:32:26.532Z,28.12
2018-09-21T05:35:26.539Z,33.75
2018-09-21T05:38:26.467Z,33.75
2018-09-21T05:41:26.502Z,39.38
2018-09-21T05:44:26.407Z,39.38
2018-09-21T05:47:26.381Z,39.38
2018-09-21T05:50:26.325Z,45.00
2018-09-21T05:53:26.329Z,61.88
2018-09-21T05:56:43.472Z,84.38
2018-09-21T05:59:26.238Z,84.38
2018-09-21T06:02:26.255Z,67.50
2018-09-21T06:05:26.325Z,50.62
2018-09-21T06:08:26.163Z,73.12
2018-09-21T06:11:27.681Z,73.12
2018-09-21T06:14:26.063Z,61.88
2018-09-21T06:17:26.051Z,56.25
2018-09-21T06:20:25.987Z,50.62
2018-09-21T06:23:25.977Z,61.88
2018-09-21T06:26:25.930Z,67.50
2018-09-21T06:29:27.677Z,61.88
2018-09-21T06:32:25.865Z,73.12
2018-09-21T06:35:26.194Z,84.38
2018-09-21T06:38:25.788Z,84.38
2018-09-21T06:41:27.678Z,95.62
2018-09-21T06:44:25.754Z,146.25
2018-09-21T06:47:25.744Z,196.88
2018-09-21T06:50:25.661Z,202.50
2018-09-21T06:53:25.624Z,157.50
2018-09-21T06:56:25.613Z,135.00
2018-09-21T06:59:27.188Z,135.00
2018-09-21T07:02:25.523Z,180.00
2018-09-21T07:05:25.521Z,168.75
2018-09-21T07:08:26.487Z,135.00
2018-09-21T07:11:26.416Z,118.12
2018-09-21T07:14:25.385Z,151.88
2018-09-21T07:17:25.380Z,247.50
2018-09-21T07:20:25.341Z,343.12
2018-09-21T07:23:25.303Z,421.88
2018-09-21T07:26:25.257Z,461.25
2018-09-21T07:29:25.263Z,433.12
2018-09-21T07:32:25.203Z,405.00
2018-09-21T07:35:25.164Z,421.88
2018-09-21T07:38:25.122Z,444.38
2018-09-21T07:41:26.097Z,506.25
2018-09-21T07:44:25.110Z,495.00
2018-09-21T07:47:25.015Z,455.62
2018-09-21T07:50:25.038Z,438.75
2018-09-21T07:53:24.953Z,331.88
2018-09-21T07:56:24.931Z,241.88
2018-09-21T07:59:24.899Z,236.25
2018-09-21T08:02:24.850Z,196.88
2018-09-21T08:05:25.030Z,320.62
2018-09-21T08:08:24.790Z,303.75
2018-09-21T08:11:24.787Z,168.75
2018-09-21T08:14:24.732Z,101.25
2018-09-21T08:17:24.698Z,185.62
2018-09-21T08:20:24.632Z,225.00
2018-09-21T08:23:24.721Z,292.50
2018-09-21T08:26:24.705Z,444.38
2018-09-21T08:29:24.580Z,264.38
2018-09-21T08:32:24.529Z,298.12
2018-09-21T08:35:24.505Z,185.62
2018-09-21T08:38:24.433Z,230.62
2018-09-21T08:41:24.426Z,371.25
2018-09-21T08:44:24.485Z,376.88
2018-09-21T08:47:24.366Z,225.00
2018-09-21T08:50:25.295Z,281.25
2018-09-21T08:53:24.289Z,292.50
2018-09-21T08:56:24.231Z,253.12
2018-09-21T08:59:24.210Z,309.38
2018-09-21T09:02:24.245Z,382.50
2018-09-21T09:05:24.145Z,388.12
2018-09-21T09:08:25.105Z,348.75
2018-09-21T09:11:25.715Z,444.38
2018-09-21T09:14:24.044Z,365.62
2018-09-21T09:17:25.703Z,399.38
2018-09-21T09:20:23.969Z,562.50
2018-09-21T09:23:24.012Z,568.12
2018-09-21T09:26:23.915Z,601.88
2018-09-21T09:29:23.897Z,658.12
2018-09-21T09:32:23.847Z,703.12
2018-09-21T09:35:23.798Z,675.00
2018-09-21T09:38:23.756Z,832.50
2018-09-21T09:41:23.745Z,916.88
2018-09-21T09:44:23.695Z,562.50
2018-09-21T09:47:24.699Z,703.12
2018-09-21T09:50:23.618Z,725.62
2018-09-21T09:53:23.614Z,731.25
2018-09-21T09:56:23.586Z,855.00
2018-09-21T09:59:23.557Z,815.62
2018-09-21T10:02:24.547Z,1153.12
2018-09-21T10:05:23.470Z,1220.62
2018-09-21T10:08:24.199Z,1451.25
2018-09-21T10:11:23.681Z,1243.12
2018-09-21T10:14:23.337Z,1170.00
2018-09-21T10:17:23.340Z,984.38
2018-09-21T10:20:23.307Z,1153.12
2018-09-21T10:23:25.166Z,787.50
2018-09-21T10:26:23.207Z,742.50
2018-09-21T10:29:24.158Z,691.88
2018-09-21T10:32:23.137Z,1074.38
2018-09-21T10:35:23.273Z,911.25
2018-09-21T10:38:23.089Z,1102.50
2018-09-21T10:41:23.096Z,1085.62
2018-09-21T10:44:23.018Z,1254.38
2018-09-21T10:47:23.030Z,1288.12
2018-09-21T10:50:22.955Z,1310.62
2018-09-21T10:53:22.955Z,1333.12
2018-09-21T10:56:22.878Z,1406.25
2018-09-21T10:59:24.675Z,1451.25
2018-09-21T11:02:22.807Z,1811.25
2018-09-21T11:05:22.799Z,1338.75
2018-09-21T11:08:22.759Z,1333.12
2018-09-21T11:11:24.706Z,725.62
2018-09-21T11:14:22.687Z,686.25
2018-09-21T11:17:24.197Z,478.12
2018-09-21T11:20:22.620Z,168.75
2018-09-21T11:23:22.641Z,196.88
2018-09-21T11:26:22.555Z,748.12
2018-09-21T11:29:22.540Z,1074.38
2018-09-21T11:32:22.493Z,658.12
2018-09-21T11:35:22.471Z,697.50
2018-09-21T11:38:22.409Z,573.75
2018-09-21T11:41:22.428Z,714.38
2018-09-21T11:44:22.347Z,725.62
2018-09-21T11:47:22.509Z,866.25
2018-09-21T11:50:22.294Z,933.75
2018-09-21T11:53:22.355Z,961.88
2018-09-21T11:56:23.167Z,1125.00
2018-09-21T11:59:22.244Z,1035.00
2018-09-21T12:02:23.138Z,1006.88
2018-09-21T12:05:22.389Z,776.25
2018-09-21T12:08:22.093Z,804.38
2018-09-21T12:11:22.051Z,821.25
2018-09-21T12:14:22.042Z,928.12
2018-09-21T12:17:21.984Z,1389.38
2018-09-21T12:20:21.938Z,748.12
2018-09-21T12:23:21.960Z,770.62
2018-09-21T12:26:21.898Z,911.25
2018-09-21T12:29:21.864Z,770.62
2018-09-21T12:32:21.811Z,708.75
2018-09-21T12:35:21.799Z,663.75
2018-09-21T12:38:21.764Z,669.38
2018-09-21T12:41:21.732Z,680.62
2018-09-21T12:44:21.698Z,646.88
2018-09-21T12:47:21.660Z,703.12
2018-09-21T12:50:21.688Z,793.12
2018-09-21T12:53:21.613Z,883.12
2018-09-21T12:56:21.534Z,843.75
2018-09-21T12:59:21.514Z,916.88
2018-09-21T13:02:21.466Z,933.75
2018-09-21T13:05:21.454Z,978.75
2018-09-21T13:08:21.444Z,855.00
2018-09-21T13:11:21.389Z,562.50
2018-09-21T13:14:21.380Z,663.75
2018-09-21T13:17:21.311Z,675.00
2018-09-21T13:20:21.321Z,781.88
2018-09-21T13:23:21.293Z,821.25
2018-09-21T13:26:21.209Z,1046.25
2018-09-21T13:29:21.382Z,748.12
2018-09-21T13:32:21.149Z,1141.88
2018-09-21T13:35:21.178Z,894.38
2018-09-21T13:38:21.074Z,1350.00
2018-09-21T13:41:21.039Z,1226.25
2018-09-21T13:44:21.010Z,1046.25
2018-09-21T13:47:20.980Z,736.88
2018-09-21T13:50:20.944Z,776.25
2018-09-21T13:53:20.916Z,804.38
2018-09-21T13:56:20.875Z,675.00
2018-09-21T13:59:20.887Z,697.50
2018-09-21T14:02:20.796Z,1018.12
2018-09-21T14:05:20.850Z,1299.38
2018-09-21T14:08:20.735Z,770.62
2018-09-21T14:11:20.753Z,365.62
2018-09-21T14:14:20.667Z,506.25
2018-09-21T14:17:22.237Z,371.25
2018-09-21T14:20:20.588Z,472.50
2018-09-21T14:23:20.573Z,1282.50
2018-09-21T14:26:20.534Z,348.75
2018-09-21T14:29:20.502Z,1271.25
2018-09-21T14:32:20.559Z,337.50
2018-09-21T14:35:20.441Z,1428.75
2018-09-21T14:38:20.427Z,1293.75
2018-09-21T14:41:20.371Z,1265.62
2018-09-21T14:44:20.372Z,348.75
2018-09-21T14:47:20.338Z,1170.00
2018-09-21T14:50:20.418Z,1158.75
2018-09-21T14:53:20.263Z,1215.00
2018-09-21T14:56:20.190Z,916.88
2018-09-21T14:59:23.946Z,669.38
2018-09-21T15:02:20.136Z,838.12
2018-09-21T15:05:20.129Z,826.88
2018-09-21T15:08:20.133Z,911.25
2018-09-21T15:11:20.043Z,691.88
2018-09-21T15:14:20.017Z,787.50
2018-09-21T15:17:19.995Z,894.38
2018-09-21T15:20:19.924Z,877.50
2018-09-21T15:23:19.960Z,832.50
2018-09-21T15:26:19.885Z,815.62
2018-09-21T15:29:20.832Z,810.00
2018-09-21T15:32:20.578Z,798.75
2018-09-21T15:35:19.784Z,258.75
2018-09-21T15:38:19.725Z,247.50
2018-09-21T15:41:19.736Z,686.25
2018-09-21T15:44:19.657Z,298.12
2018-09-21T15:47:19.632Z,236.25
2018-09-21T15:50:19.587Z,230.62
2018-09-21T15:53:19.583Z,219.38
2018-09-21T15:56:19.528Z,213.75
2018-09-21T15:59:19.619Z,208.12
2018-09-21T16:02:20.468Z,433.12
2018-09-21T16:05:20.218Z,253.12
2018-09-21T16:08:19.409Z,253.12
2018-09-21T16:11:19.357Z,472.50
2018-09-21T16:14:19.387Z,410.62
2018-09-21T16:17:19.419Z,388.12
2018-09-21T16:20:19.269Z,354.38
2018-09-21T16:23:19.423Z,376.88
2018-09-21T16:26:19.175Z,388.12
2018-09-21T16:29:21.147Z,382.50
2018-09-21T16:32:19.110Z,343.12
2018-09-21T16:35:19.111Z,151.88
2018-09-21T16:38:19.051Z,225.00
2018-09-21T16:41:19.033Z,151.88
2018-09-21T16:44:18.982Z,151.88
2018-09-21T16:47:18.976Z,140.62
2018-09-21T16:50:18.932Z,135.00
2018-09-21T16:53:18.904Z,129.38
2018-09-21T16:56:18.935Z,123.75
2018-09-21T16:59:18.868Z,106.88
2018-09-21T17:02:18.935Z,95.62
2018-09-21T17:05:18.752Z,90.00
2018-09-21T17:08:18.721Z,84.38
2018-09-21T17:11:18.719Z,78.75
2018-09-21T17:14:18.644Z,67.50
2018-09-21T17:17:18.610Z,61.88
2018-09-21T17:20:18.631Z,50.62
2018-09-21T17:23:18.542Z,39.38
2018-09-21T17:26:18.542Z,33.75
2018-09-21T17:29:18.490Z,28.12
2018-09-21T17:32:18.499Z,22.50
2018-09-21T17:35:18.428Z,16.88
2018-09-21T17:38:18.386Z,11.25
2018-09-21T17:41:18.351Z,5.62
2018-09-21T17:44:18.290Z,5.62
2018-09-21T17:47:18.295Z,0.00
2018-09-21T17:50:18.222Z,0.00
2018-09-21T17:53:18.266Z,0.00
2018-09-21T17:56:18.168Z,0.00
2018-09-21T17:59:18.160Z,0.00
2018-09-21T18:02:18.128Z,0.00
2018-09-21T18:05:18.103Z,0.00
2018-09-21T18:08:18.052Z,0.00
2018-09-21T18:11:18.006Z,0.00
2018-09-21T18:14:17.965Z,0.00
2018-09-21T18:17:17.943Z,0.00
2018-09-21T18:20:17.893Z,0.00
2018-09-21T18:23:20.167Z,0.00
2018-09-21T18:26:17.812Z,0.00
2018-09-21T18:29:17.819Z,0.00
2018-09-21T18:32:17.742Z,0.00
2018-09-21T18:35:17.732Z,0.00
2018-09-21T18:38:17.679Z,0.00
2018-09-21T18:41:17.855Z,0.00
2018-09-21T18:44:17.640Z,0.00
2018-09-21T18:47:42.621Z,0.00
2018-09-21T18:50:18.281Z,0.00
2018-09-21T18:53:17.525Z,0.00
2018-09-21T18:56:17.481Z,0.00
2018-09-21T18:59:17.465Z,0.00
2018-09-21T19:02:17.421Z,0.00
2018-09-21T19:05:17.401Z,0.00
2018-09-21T19:08:17.352Z,0.00
2018-09-21T19:11:17.441Z,0.00
2018-09-21T19:14:17.299Z,0.00
2018-09-21T19:17:17.317Z,0.00
2018-09-21T19:20:17.200Z,0.00
2018-09-21T19:23:17.187Z,0.00
2018-09-21T19:26:17.142Z,0.00
2018-09-21T19:29:17.110Z,0.00
2018-09-21T19:32:17.074Z,0.00
2018-09-21T19:35:17.051Z,0.00
2018-09-21T19:38:16.988Z,0.00
2018-09-21T19:41:16.988Z,0.00
2018-09-21T19:44:16.921Z,0.00
2018-09-21T19:47:16.928Z,0.00
2018-09-21T19:50:16.892Z,0.00
2018-09-21T19:53:16.868Z,0.00
2018-09-21T19:56:16.800Z,0.00
2018-09-21T19:59:16.784Z,0.00
2018-09-21T20:02:16.726Z,0.00
2018-09-21T20:05:16.716Z,0.00
2018-09-21T20:08:16.665Z,0.00
2018-09-21T20:11:16.653Z,0.00
2018-09-21T20:14:16.580Z,0.00
2018-09-21T20:17:16.585Z,0.00
2018-09-21T20:20:16.515Z,0.00
2018-09-21T20:23:16.523Z,0.00
2018-09-21T20:26:16.467Z,0.00
2018-09-21T20:29:16.450Z,0.00
2018-09-21T20:32:16.386Z,0.00
2018-09-21T20:35:16.376Z,0.00
2018-09-21T20:38:16.326Z,0.00
2018-09-21T20:41:16.291Z,0.00
2018-09-21T20:44:16.264Z,0.00
2018-09-21T20:47:16.261Z,0.00
2018-09-21T20:50:18.109Z,0.00
2018-09-21T20:53:16.152Z,0.00
2018-09-21T20:56:16.175Z,0.00
2018-09-21T20:59:16.128Z,0.00
2018-09-21T21:02:16.106Z,0.00
2018-09-21T21:05:16.093Z,0.00
2018-09-21T21:08:16.028Z,0.00
2018-09-21T21:11:16.001Z,0.00
2018-09-21T21:14:16.639Z,0.00
2018-09-21T21:17:15.879Z,0.00
2018-09-21T21:20:15.839Z,0.00
2018-09-21T21:23:15.810Z,0.00
2018-09-21T21:26:15.766Z,0.00
2018-09-21T21:29:15.785Z,0.00
2018-09-21T21:32:15.701Z,0.00
2018-09-21T21:35:16.716Z,0.00
2018-09-21T21:38:15.633Z,0.00
2018-09-21T21:41:15.627Z,0.00
2018-09-21T21:44:15.561Z,0.00
2018-09-21T21:47:15.650Z,0.00
2018-09-21T21:50:16.410Z,0.00
2018-09-21T21:53:16.158Z,0.00
2018-09-21T21:56:15.416Z,0.00
2018-09-21T21:59:24.687Z,0.00
2018-09-21T22:02:15.503Z,0.00
2018-09-21T22:05:15.727Z,0.00
2018-09-21T22:08:25.090Z,0.00
2018-09-21T22:11:36.734Z,0.00
2018-09-21T22:14:15.323Z,0.00
2018-09-21T22:17:15.200Z,0.00
2018-09-21T22:20:15.151Z,0.00
2018-09-21T22:23:15.127Z,0.00
2018-09-21T22:26:15.185Z,0.00
2018-09-21T22:29:15.052Z,0.00
2018-09-21T22:32:15.103Z,0.00
2018-09-21T22:35:16.181Z,0.00
2018-09-21T22:38:15.139Z,0.00
2018-09-21T22:41:14.923Z,0.00
2018-09-21T22:44:14.869Z,0.00
2018-09-21T22:47:14.849Z,0.00
2018-09-21T22:50:14.807Z,0.00
2018-09-21T22:53:14.779Z,0.00
2018-09-21T22:56:14.752Z,0.00
2018-09-21T22:59:15.006Z,0.00
2018-09-21T23:02:14.681Z,0.00
2018-09-21T23:05:14.764Z,0.00
2018-09-21T23:08:14.599Z,0.00
2018-09-21T23:11:14.599Z,0.00
2018-09-21T23:14:14.556Z,0.00
2018-09-21T23:17:16.114Z,0.00
2018-09-21T23:20:14.462Z,0.00
2018-09-21T23:23:14.463Z,0.00
2018-09-21T23:26:14.402Z,0.00
2018-09-21T23:29:14.386Z,0.00
2018-09-21T23:32:14.425Z,0.00
2018-09-21T23:35:14.304Z,0.00
2018-09-21T23:38:14.273Z,0.00
2018-09-21T23:41:14.236Z,0.00
2018-09-21T23:44:14.223Z,0.00
2018-09-21T23:47:14.178Z,0.00
2018-09-21T23:50:14.152Z,0.00
2018-09-21T23:53:14.126Z,0.00
2018-09-21T23:56:14.087Z,0.00
2018-09-21T23:59:14.179Z,0.00
